Windham, NY

3:35 AM EST on December 28, 2014 (GMT -0500)
Albany International | Change Station
CLOSE
Current Station
Airport
Location: Albany,
Elevation: 292 ft
Nearby Weather Stations

Elev 292 ft 42.75 °N, 73.80 °W | Updated 44 minutes ago

Overcast
Overcast
44 °F
Feels Like 40 °F
N
8
Wind Variable Wind from SE

Today
High -- | Low -- °F
--% Chance of Precip.
Yesterday
High -- | Low -- °F
Precip. -- in
7:25 AM 4:32 PM
Waxing Crescent, 45% visible
Pressure 29.91 in
Visibility 7.0 miles
Clouds Overcast 5000 ft
Windchill 40 °F
Dew Point 38 °F
Humidity 79%
Rainfall 0.11 in
Snow Depth Not available.
UV 0 out of 12
Pollen .10 out of 12
Air Quality Not available.
Flu Activity Not available.
METAR KALB 280751Z 14007KT 7SM RA OVC050 07/03 A2991 RMK AO2 SLP129 P0010 T00670033

More Conditions Fewer Conditions

Pressure 29.91 in
Visibility 7.0 miles
Clouds Overcast 5000 ft
Windchill 40 °F
Dew Point 38 °F
Humidity 79%
Rainfall 0.11 in
Snow Depth Not available.
UV 0 out of 12
Pollen .10 out of 12
Air Quality Not available.
Flu Activity Not available.
METAR KALB 280751Z 14007KT 7SM RA OVC050 07/03 A2991 RMK AO2 SLP129 P0010 T00670033

More Conditions Fewer Conditions

10-Day Weather Forecast

Almanac

Astronomy

Dec. 28, 2014 Rise Set
Actual Time
Civil Twilight
Nautical Twilight
Astronomical Twilight
Moon
Length of Visible Light
Length of Day
Tomorrow will be .
, % of the Moon is Illuminated

Today's Extremes

State Highs State Lows

Community

WunderPhotos

Upload Photos

1,781,210 photos uploaded!

WunderBlogs® & News

Nearby

Air Quality

  Air Quality AQ Index Pollutant
Not available.

Snow Depth

Station Depth Elevation

Earthquake Activity

City Distance Mag. Time & Date
Minimum magnitude displayed is 2.5.

Coastal Water Temperatures

Place Temperature

Nearby Weather Stations